sensor_id;sensor_type;location;lat;lon;timestamp;pressure;altitude;pressure_sealevel;temperature;humidity
75521;BME280;64102;48.628;9.002;2023-11-21T00:00:50;95411.63;;;5.31;100.00
75521;BME280;64102;48.628;9.002;2023-11-21T00:03:16;95417.34;;;5.35;100.00
75521;BME280;64102;48.628;9.002;2023-11-21T00:05:41;95406.03;;;5.37;100.00
75521;BME280;64102;48.628;9.002;2023-11-21T00:08:07;95408.34;;;5.40;100.00
75521;BME280;64102;48.628;9.002;2023-11-21T00:10:34;95405.66;;;5.42;100.00
75521;BME280;64102;48.628;9.002;2023-11-21T00:12:59;95407.97;;;5.45;100.00
75521;BME280;64102;48.628;9.002;2023-11-21T00:15:25;95414.22;;;5.52;100.00
75521;BME280;64102;48.628;9.002;2023-11-21T00:17:51;95411.41;;;5.55;100.00
75521;BME280;64102;48.628;9.002;2023-11-21T00:20:17;95415.34;;;5.59;100.00
75521;BME280;64102;48.628;9.002;2023-11-21T00:22:42;95403.47;;;5.58;100.00
75521;BME280;64102;48.628;9.002;2023-11-21T00:25:08;95405.91;;;5.60;100.00
75521;BME280;64102;48.628;9.002;2023-11-21T00:27:35;95405.66;;;5.63;100.00
75521;BME280;64102;48.628;9.002;2023-11-21T00:30:00;95399.75;;;5.62;100.00
75521;BME280;64102;48.628;9.002;2023-11-21T00:32:26;95402.44;;;5.61;100.00
75521;BME280;64102;48.628;9.002;2023-11-21T00:34:51;95399.75;;;5.62;100.00
75521;BME280;64102;48.628;9.002;2023-11-21T00:37:17;95407.53;;;5.61;100.00
75521;BME280;64102;48.628;9.002;2023-11-21T00:39:42;95405.66;;;5.63;100.00
75521;BME280;64102;48.628;9.002;2023-11-21T00:42:07;95403.09;;;5.63;100.00
75521;BME280;64102;48.628;9.002;2023-11-21T00:44:33;95402.31;;;5.62;100.00
75521;BME280;64102;48.628;9.002;2023-11-21T00:46:59;95407.53;;;5.61;100.00
75521;BME280;64102;48.628;9.002;2023-11-21T00:49:25;95411.72;;;5.62;100.00
75521;BME280;64102;48.628;9.002;2023-11-21T00:51:50;95407.28;;;5.64;100.00
75521;BME280;64102;48.628;9.002;2023-11-21T00:54:15;95407.28;;;5.64;100.00
75521;BME280;64102;48.628;9.002;2023-11-21T00:56:42;95412.19;;;5.67;100.00
75521;BME280;64102;48.628;9.002;2023-11-21T00:59:08;95414.59;;;5.68;100.00
75521;BME280;64102;48.628;9.002;2023-11-21T01:01:34;95413.53;;;5.71;100.00
75521;BME280;64102;48.628;9.002;2023-11-21T01:04:00;95406.78;;;5.70;100.00
75521;BME280;64102;48.628;9.002;2023-11-21T01:06:25;95408.53;;;5.69;100.00
75521;BME280;64102;48.628;9.002;2023-11-21T01:08:51;95398.41;;;5.68;100.00
75521;BME280;64102;48.628;9.002;2023-11-21T01:11:16;95393.44;;;5.66;100.00
75521;BME280;64102;48.628;9.002;2023-11-21T01:13:42;95393.56;;;5.65;100.00
75521;BME280;64102;48.628;9.002;2023-11-21T01:16:08;95392.75;;;5.64;100.00
75521;BME280;64102;48.628;9.002;2023-11-21T01:18:35;95395.84;;;5.68;100.00
75521;BME280;64102;48.628;9.002;2023-11-21T01:21:00;95387.69;;;5.74;100.00
75521;BME280;64102;48.628;9.002;2023-11-21T01:23:25;95391.63;;;5.78;100.00
75521;BME280;64102;48.628;9.002;2023-11-21T01:25:52;95397.66;;;5.77;100.00
75521;BME280;64102;48.628;9.002;2023-11-21T01:28:17;95396.03;;;5.76;100.00
75521;BME280;64102;48.628;9.002;2023-11-21T01:30:42;95396.72;;;5.78;100.00
75521;BME280;64102;48.628;9.002;2023-11-21T01:33:08;95390.13;;;5.75;100.00
75521;BME280;64102;48.628;9.002;2023-11-21T01:35:33;95394.88;;;5.80;100.00
75521;BME280;64102;48.628;9.002;2023-11-21T01:37:59;95393.25;;;5.79;100.00
75521;BME280;64102;48.628;9.002;2023-11-21T01:40:24;95394.19;;;5.78;100.00
75521;BME280;64102;48.628;9.002;2023-11-21T01:42:50;95388.25;;;5.77;100.00
75521;BME280;64102;48.628;9.002;2023-11-21T01:45:15;95380.13;;;5.72;100.00
75521;BME280;64102;48.628;9.002;2023-11-21T01:47:42;95393.28;;;5.68;100.00
75521;BME280;64102;48.628;9.002;2023-11-21T01:50:15;95377.38;;;5.64;100.00
75521;BME280;64102;48.628;9.002;2023-11-21T01:52:43;95386.25;;;5.60;100.00
75521;BME280;64102;48.628;9.002;2023-11-21T01:55:10;95379.66;;;5.58;100.00
75521;BME280;64102;48.628;9.002;2023-11-21T01:57:36;95373.94;;;5.54;100.00
75521;BME280;64102;48.628;9.002;2023-11-21T02:00:03;95379.88;;;5.55;100.00
75521;BME280;64102;48.628;9.002;2023-11-21T02:02:44;95381.19;;;5.49;100.00
75521;BME280;64102;48.628;9.002;2023-11-21T02:05:14;95383.34;;;5.44;100.00
75521;BME280;64102;48.628;9.002;2023-11-21T02:07:40;95391.13;;;5.43;100.00
75521;BME280;64102;48.628;9.002;2023-11-21T02:10:08;95388.09;;;5.49;100.00
75521;BME280;64102;48.628;9.002;2023-11-21T02:12:34;95387.13;;;5.50;100.00
75521;BME280;64102;48.628;9.002;2023-11-21T02:15:04;95396.16;;;5.54;100.00
75521;BME280;64102;48.628;9.002;2023-11-21T02:17:35;95389.19;;;5.56;100.00
75521;BME280;64102;48.628;9.002;2023-11-21T02:20:00;95384.63;;;5.59;100.00
75521;BME280;64102;48.628;9.002;2023-11-21T02:22:30;95383.81;;;5.59;100.00
75521;BME280;64102;48.628;9.002;2023-11-21T02:24:56;95393.94;;;5.60;100.00
75521;BME280;64102;48.628;9.002;2023-11-21T02:27:23;95390.81;;;5.57;100.00
75521;BME280;64102;48.628;9.002;2023-11-21T02:29:49;95386.75;;;5.54;100.00
75521;BME280;64102;48.628;9.002;2023-11-21T02:32:14;95385.00;;;5.55;100.00
75521;BME280;64102;48.628;9.002;2023-11-21T02:34:39;95386.63;;;5.56;100.00
75521;BME280;64102;48.628;9.002;2023-11-21T02:37:05;95382.59;;;5.53;100.00
75521;BME280;64102;48.628;9.002;2023-11-21T02:39:31;95380.97;;;5.52;100.00
75521;BME280;64102;48.628;9.002;2023-11-21T02:41:56;95383.53;;;5.52;100.00
75521;BME280;64102;48.628;9.002;2023-11-21T02:44:22;95370.72;;;5.52;100.00
75521;BME280;64102;48.628;9.002;2023-11-21T02:46:47;95377.47;;;5.53;100.00
75521;BME280;64102;48.628;9.002;2023-11-21T02:49:12;95370.84;;;5.51;100.00
75521;BME280;64102;48.628;9.002;2023-11-21T02:51:38;95374.09;;;5.53;100.00
75521;BME280;64102;48.628;9.002;2023-11-21T02:54:05;95369.78;;;5.53;100.00
75521;BME280;64102;48.628;9.002;2023-11-21T02:56:32;95373.50;;;5.49;100.00
75521;BME280;64102;48.628;9.002;2023-11-21T02:58:59;95377.84;;;5.49;100.00
75521;BME280;64102;48.628;9.002;2023-11-21T03:01:24;95365.28;;;5.46;100.00
75521;BME280;64102;48.628;9.002;2023-11-21T03:03:50;95367.63;;;5.49;100.00
75521;BME280;64102;48.628;9.002;2023-11-21T03:06:19;95368.66;;;5.46;100.00
75521;BME280;64102;48.628;9.002;2023-11-21T03:08:44;95373.78;;;5.46;100.00
75521;BME280;64102;48.628;9.002;2023-11-21T03:11:10;95371.09;;;5.48;100.00
75521;BME280;64102;48.628;9.002;2023-11-21T03:13:35;95375.50;;;5.46;100.00
75521;BME280;64102;48.628;9.002;2023-11-21T03:16:00;95371.09;;;5.48;100.00
75521;BME280;64102;48.628;9.002;2023-11-21T03:18:25;95361.34;;;5.41;100.00
75521;BME280;64102;48.628;9.002;2023-11-21T03:20:54;95369.72;;;5.44;100.00
75521;BME280;64102;48.628;9.002;2023-11-21T03:23:19;95364.63;;;5.44;100.00
75521;BME280;64102;48.628;9.002;2023-11-21T03:25:45;95360.53;;;5.41;100.00
75521;BME280;64102;48.628;9.002;2023-11-21T03:28:10;95368.34;;;5.39;100.00
75521;BME280;64102;48.628;9.002;2023-11-21T03:30:36;95362.81;;;5.34;100.00
75521;BME280;64102;48.628;9.002;2023-11-21T03:33:01;95369.78;;;5.32;100.00
75521;BME280;64102;48.628;9.002;2023-11-21T03:35:26;95369.91;;;5.31;100.00
75521;BME280;64102;48.628;9.002;2023-11-21T03:37:53;95370.69;;;5.31;100.00
75521;BME280;64102;48.628;9.002;2023-11-21T03:40:18;95366.16;;;5.35;100.00
75521;BME280;64102;48.628;9.002;2023-11-21T03:42:43;95371.03;;;5.38;100.00
75521;BME280;64102;48.628;9.002;2023-11-21T03:45:09;95380.44;;;5.37;100.00
75521;BME280;64102;48.628;9.002;2023-11-21T03:47:34;95381.38;;;5.36;100.00
75521;BME280;64102;48.628;9.002;2023-11-21T03:50:00;95381.38;;;5.36;100.00
75521;BME280;64102;48.628;9.002;2023-11-21T03:52:26;95383.81;;;5.38;100.00
75521;BME280;64102;48.628;9.002;2023-11-21T03:54:52;95379.63;;;5.37;100.00
75521;BME280;64102;48.628;9.002;2023-11-21T03:57:17;95385.19;;;5.42;100.00
75521;BME280;64102;48.628;9.002;2023-11-21T03:59:43;95388.56;;;5.43;100.00
75521;BME280;64102;48.628;9.002;2023-11-21T04:02:08;95392.50;;;5.47;100.00
75521;BME280;64102;48.628;9.002;2023-11-21T04:04:35;95388.44;;;5.44;100.00
75521;BME280;64102;48.628;9.002;2023-11-21T04:07:00;95390.88;;;5.46;100.00
75521;BME280;64102;48.628;9.002;2023-11-21T04:09:25;95387.50;;;5.45;100.00
75521;BME280;64102;48.628;9.002;2023-11-21T04:11:52;95395.97;;;5.46;100.00
75521;BME280;64102;48.628;9.002;2023-11-21T04:14:18;95391.94;;;5.43;100.00
75521;BME280;64102;48.628;9.002;2023-11-21T04:16:43;95392.97;;;5.40;100.00
75521;BME280;64102;48.628;9.002;2023-11-21T04:19:09;95395.78;;;5.37;100.00
75521;BME280;64102;48.628;9.002;2023-11-21T04:21:38;95393.13;;;5.39;100.00
75521;BME280;64102;48.628;9.002;2023-11-21T04:24:04;95399.88;;;5.40;100.00
75521;BME280;64102;48.628;9.002;2023-11-21T04:26:29;95396.25;;;5.43;100.00
75521;BME280;64102;48.628;9.002;2023-11-21T04:28:54;95394.34;;;5.45;100.00
75521;BME280;64102;48.628;9.002;2023-11-21T04:31:20;95392.75;;;5.44;100.00
75521;BME280;64102;48.628;9.002;2023-11-21T04:33:45;95392.88;;;5.42;100.00
75521;BME280;64102;48.628;9.002;2023-11-21T04:36:11;95405.78;;;5.40;100.00
75521;BME280;64102;48.628;9.002;2023-11-21T04:38:36;95402.53;;;5.38;100.00
75521;BME280;64102;48.628;9.002;2023-11-21T04:41:01;95407.91;;;5.35;100.00
75521;BME280;64102;48.628;9.002;2023-11-21T04:43:27;95403.72;;;5.34;100.00
75521;BME280;64102;48.628;9.002;2023-11-21T04:45:52;95409.66;;;5.35;100.00
75521;BME280;64102;48.628;9.002;2023-11-21T04:48:17;95412.22;;;5.35;100.00
75521;BME280;64102;48.628;9.002;2023-11-21T04:50:43;95411.50;;;5.33;100.00
75521;BME280;64102;48.628;9.002;2023-11-21T04:53:08;95416.75;;;5.31;100.00
75521;BME280;64102;48.628;9.002;2023-11-21T04:55:33;95415.97;;;5.31;100.00
75521;BME280;64102;48.628;9.002;2023-11-21T04:57:59;95417.72;;;5.30;100.00
75521;BME280;64102;48.628;9.002;2023-11-21T05:00:24;95416.75;;;5.31;100.00
75521;BME280;64102;48.628;9.002;2023-11-21T05:02:49;95415.16;;;5.30;100.00
75521;BME280;64102;48.628;9.002;2023-11-21T05:05:15;95421.06;;;5.31;100.00
75521;BME280;64102;48.628;9.002;2023-11-21T05:07:40;95415.97;;;5.31;100.00
75521;BME280;64102;48.628;9.002;2023-11-21T05:10:07;95421.88;;;5.31;100.00
75521;BME280;64102;48.628;9.002;2023-11-21T05:12:35;95417.56;;;5.32;100.00
75521;BME280;64102;48.628;9.002;2023-11-21T05:15:04;95425.13;;;5.33;100.00
75521;BME280;64102;48.628;9.002;2023-11-21T05:17:33;95430.25;;;5.33;100.00
75521;BME280;64102;48.628;9.002;2023-11-21T05:19:59;95426.75;;;5.34;100.00
75521;BME280;64102;48.628;9.002;2023-11-21T05:22:28;95431.06;;;5.34;100.00
75521;BME280;64102;48.628;9.002;2023-11-21T05:24:54;95430.25;;;5.33;100.00
75521;BME280;64102;48.628;9.002;2023-11-21T05:27:19;95435.47;;;5.32;100.00
75521;BME280;64102;48.628;9.002;2023-11-21T05:29:44;95433.16;;;5.29;100.00
75521;BME280;64102;48.628;9.002;2023-11-21T05:32:10;95438.28;;;5.29;100.00
75521;BME280;64102;48.628;9.002;2023-11-21T05:34:35;95440.94;;;5.27;100.00
75521;BME280;64102;48.628;9.002;2023-11-21T05:37:00;95433.41;;;5.26;100.00
75521;BME280;64102;48.628;9.002;2023-11-21T05:39:26;95437.72;;;5.25;100.00
75521;BME280;64102;48.628;9.002;2023-11-21T05:41:53;95442.03;;;5.25;100.00
75521;BME280;64102;48.628;9.002;2023-11-21T05:44:19;95439.56;;;5.23;100.00
75521;BME280;64102;48.628;9.002;2023-11-21T05:46:44;95446.31;;;5.24;100.00
75521;BME280;64102;48.628;9.002;2023-11-21T05:49:09;95442.03;;;5.25;100.00
75521;BME280;64102;48.628;9.002;2023-11-21T05:51:35;95440.13;;;5.27;100.00
75521;BME280;64102;48.628;9.002;2023-11-21T05:54:00;95438.53;;;5.26;100.00
75521;BME280;64102;48.628;9.002;2023-11-21T05:56:26;95445.13;;;5.28;100.00
75521;BME280;64102;48.628;9.002;2023-11-21T05:58:51;95437.56;;;5.27;100.00
75521;BME280;64102;48.628;9.002;2023-11-21T06:01:17;95444.69;;;5.23;100.00
75521;BME280;64102;48.628;9.002;2023-11-21T06:03:43;95438.91;;;5.21;100.00
75521;BME280;64102;48.628;9.002;2023-11-21T06:06:08;95441.00;;;5.16;100.00
75521;BME280;64102;48.628;9.002;2023-11-21T06:08:33;95447.28;;;5.12;100.00
75521;BME280;64102;48.628;9.002;2023-11-21T06:10:59;95442.53;;;5.08;100.00
75521;BME280;64102;48.628;9.002;2023-11-21T06:13:24;95451.97;;;5.07;100.00
75521;BME280;64102;48.628;9.002;2023-11-21T06:15:50;95454.50;;;5.07;100.00
75521;BME280;64102;48.628;9.002;2023-11-21T06:18:16;95457.75;;;5.09;100.00
75521;BME280;64102;48.628;9.002;2023-11-21T06:20:44;95456.16;;;5.08;100.00
75521;BME280;64102;48.628;9.002;2023-11-21T06:23:10;95457.75;;;5.09;100.00
75521;BME280;64102;48.628;9.002;2023-11-21T06:25:36;95461.13;;;5.10;100.00
75521;BME280;64102;48.628;9.002;2023-11-21T06:28:02;95463.56;;;5.11;100.00
75521;BME280;64102;48.628;9.002;2023-11-21T06:30:27;95467.75;;;5.12;100.00
75521;BME280;64102;48.628;9.002;2023-11-21T06:32:54;95469.50;;;5.12;100.00
75521;BME280;64102;48.628;9.002;2023-11-21T06:35:20;95471.25;;;5.11;100.00
75521;BME280;64102;48.628;9.002;2023-11-21T06:37:45;95477.97;;;5.12;100.00
75521;BME280;64102;48.628;9.002;2023-11-21T06:40:13;95480.41;;;5.14;100.00
75521;BME280;64102;48.628;9.002;2023-11-21T06:42:40;95485.50;;;5.14;100.00
75521;BME280;64102;48.628;9.002;2023-11-21T06:45:06;95479.38;;;5.16;100.00
75521;BME280;64102;48.628;9.002;2023-11-21T06:47:32;95481.00;;;5.17;100.00
75521;BME280;64102;48.628;9.002;2023-11-21T06:49:58;95491.91;;;5.19;100.00
75521;BME280;64102;48.628;9.002;2023-11-21T06:52:24;95485.03;;;5.20;100.00
75521;BME280;64102;48.628;9.002;2023-11-21T06:54:49;95490.16;;;5.20;100.00
75521;BME280;64102;48.628;9.002;2023-11-21T06:57:15;95497.72;;;5.21;100.00
75521;BME280;64102;48.628;9.002;2023-11-21T06:59:40;95501.88;;;5.22;100.00
75521;BME280;64102;48.628;9.002;2023-11-21T07:02:06;95500.03;;;5.24;100.00
75521;BME280;64102;48.628;9.002;2023-11-21T07:04:35;95509.34;;;5.25;100.00
75521;BME280;64102;48.628;9.002;2023-11-21T07:07:02;95509.09;;;5.28;100.00
75521;BME280;64102;48.628;9.002;2023-11-21T07:09:28;95505.84;;;5.26;100.00
75521;BME280;64102;48.628;9.002;2023-11-21T07:11:53;95509.09;;;5.28;100.00
75521;BME280;64102;48.628;9.002;2023-11-21T07:14:19;95512.34;;;5.30;100.00
75521;BME280;64102;48.628;9.002;2023-11-21T07:16:45;95516.75;;;5.28;100.00
75521;BME280;64102;48.628;9.002;2023-11-21T07:19:11;95514.09;;;5.30;100.00
75521;BME280;64102;48.628;9.002;2023-11-21T07:21:38;95518.97;;;5.33;100.00
75521;BME280;64102;48.628;9.002;2023-11-21T07:24:04;95521.63;;;5.31;100.00
75521;BME280;64102;48.628;9.002;2023-11-21T07:26:31;95524.19;;;5.31;100.00
75521;BME280;64102;48.628;9.002;2023-11-21T07:28:56;95521.53;;;5.33;100.00
75521;BME280;64102;48.628;9.002;2023-11-21T07:31:22;95528.25;;;5.34;100.00
75521;BME280;64102;48.628;9.002;2023-11-21T07:33:49;95519.41;;;5.38;100.00
75521;BME280;64102;48.628;9.002;2023-11-21T07:36:16;95526.03;;;5.40;100.00
75521;BME280;64102;48.628;9.002;2023-11-21T07:38:43;95531.84;;;5.43;100.00
75521;BME280;64102;48.628;9.002;2023-11-21T07:41:10;95529.97;;;5.45;100.00
75521;BME280;64102;48.628;9.002;2023-11-21T07:43:35;95539.97;;;5.48;100.00
75521;BME280;64102;48.628;9.002;2023-11-21T07:46:01;95532.75;;;5.53;100.00
75521;BME280;64102;48.628;9.002;2023-11-21T07:48:29;95534.34;;;5.54;100.00
75521;BME280;64102;48.628;9.002;2023-11-21T07:50:54;95536.91;;;5.54;100.00
75521;BME280;64102;48.628;9.002;2023-11-21T07:53:20;95546.78;;;5.58;100.00
75521;BME280;64102;48.628;9.002;2023-11-21T07:55:45;95540.06;;;5.57;100.00
75521;BME280;64102;48.628;9.002;2023-11-21T07:58:12;95544.13;;;5.60;100.00
75521;BME280;64102;48.628;9.002;2023-11-21T08:00:38;95545.84;;;5.59;100.00
75521;BME280;64102;48.628;9.002;2023-11-21T08:03:04;95541.31;;;5.63;100.00
75521;BME280;64102;48.628;9.002;2023-11-21T08:05:30;95550.63;;;5.64;100.00
75521;BME280;64102;48.628;9.002;2023-11-21T08:07:56;95552.00;;;5.68;100.00
75521;BME280;64102;48.628;9.002;2023-11-21T08:10:21;95549.31;;;5.69;100.00
75521;BME280;64102;48.628;9.002;2023-11-21T08:12:47;95555.00;;;5.73;100.00
75521;BME280;64102;48.628;9.002;2023-11-21T08:15:13;95556.94;;;5.80;100.00
75521;BME280;64102;48.628;9.002;2023-11-21T08:17:39;95555.91;;;5.83;100.00
75521;BME280;64102;48.628;9.002;2023-11-21T08:20:05;95557.19;;;5.89;100.00
75521;BME280;64102;48.628;9.002;2023-11-21T08:22:31;95550.91;;;5.93;100.00
75521;BME280;64102;48.628;9.002;2023-11-21T08:24:57;95555.66;;;5.97;100.00
75521;BME280;64102;48.628;9.002;2023-11-21T08:27:22;95552.81;;;6.00;100.00
75521;BME280;64102;48.628;9.002;2023-11-21T08:29:48;95564.19;;;6.07;100.00
75521;BME280;64102;48.628;9.002;2023-11-21T08:32:13;95559.50;;;6.12;100.00
75521;BME280;64102;48.628;9.002;2023-11-21T08:34:38;95571.75;;;6.09;100.00
75521;BME280;64102;48.628;9.002;2023-11-21T08:37:05;95565.34;;;6.14;100.00
75521;BME280;64102;48.628;9.002;2023-11-21T08:39:30;95568.09;;;6.22;100.00
75521;BME280;64102;48.628;9.002;2023-11-21T08:41:57;95570.16;;;6.28;100.00
75521;BME280;64102;48.628;9.002;2023-11-21T08:44:22;95565.03;;;6.28;100.00
75521;BME280;64102;48.628;9.002;2023-11-21T08:46:48;95568.16;;;6.32;100.00
75521;BME280;64102;48.628;9.002;2023-11-21T08:49:14;95571.38;;;6.34;100.00
75521;BME280;64102;48.628;9.002;2023-11-21T08:51:40;95577.31;;;6.35;100.00
75521;BME280;64102;48.628;9.002;2023-11-21T08:54:06;95573.28;;;6.32;100.00
75521;BME280;64102;48.628;9.002;2023-11-21T08:56:36;95578.59;;;6.40;100.00
75521;BME280;64102;48.628;9.002;2023-11-21T08:59:01;95586.13;;;6.62;100.00
75521;BME280;64102;48.628;9.002;2023-11-21T09:01:28;95581.63;;;6.75;100.00
75521;BME280;64102;48.628;9.002;2023-11-21T09:03:56;95584.38;;;6.93;100.00
75521;BME280;64102;48.628;9.002;2023-11-21T09:06:22;95580.91;;;6.94;100.00
75521;BME280;64102;48.628;9.002;2023-11-21T09:08:47;95587.00;;;7.03;100.00
75521;BME280;64102;48.628;9.002;2023-11-21T09:11:12;95586.38;;;7.20;100.00
75521;BME280;64102;48.628;9.002;2023-11-21T09:13:38;95592.72;;;7.16;100.00
75521;BME280;64102;48.628;9.002;2023-11-21T09:16:04;95597.81;;;7.06;100.00
75521;BME280;64102;48.628;9.002;2023-11-21T09:18:31;95603.31;;;7.02;100.00
75521;BME280;64102;48.628;9.002;2023-11-21T09:20:56;95603.16;;;6.94;100.00
75521;BME280;64102;48.628;9.002;2023-11-21T09:23:21;95603.53;;;6.89;100.00
75521;BME280;64102;48.628;9.002;2023-11-21T09:25:47;95594.50;;;6.85;100.00
75521;BME280;64102;48.628;9.002;2023-11-21T09:28:15;95604.03;;;6.83;100.00
75521;BME280;64102;48.628;9.002;2023-11-21T09:30:40;95601.47;;;6.83;100.00
75521;BME280;64102;48.628;9.002;2023-11-21T09:33:06;95605.44;;;6.87;100.00
75521;BME280;64102;48.628;9.002;2023-11-21T09:35:32;95613.97;;;6.97;100.00
75521;BME280;64102;48.628;9.002;2023-11-21T09:37:57;95602.94;;;7.06;100.00
75521;BME280;64102;48.628;9.002;2023-11-21T09:40:22;95606.75;;;7.12;100.00
75521;BME280;64102;48.628;9.002;2023-11-21T09:42:56;95605.63;;;7.35;100.00
75521;BME280;64102;48.628;9.002;2023-11-21T09:45:26;95613.91;;;7.48;100.00
75521;BME280;64102;48.628;9.002;2023-11-21T09:47:56;95613.44;;;7.34;100.00
75521;BME280;64102;48.628;9.002;2023-11-21T09:50:22;95614.13;;;7.05;100.00
75521;BME280;64102;48.628;9.002;2023-11-21T09:55:46;95621.53;;;7.29;100.00
75521;BME280;64102;48.628;9.002;2023-11-21T09:58:13;95622.09;;;7.33;100.00
75521;BME280;64102;48.628;9.002;2023-11-21T10:00:47;95627.59;;;7.28;100.00
75521;BME280;64102;48.628;9.002;2023-11-21T10:03:13;95629.28;;;7.39;100.00
75521;BME280;64102;48.628;9.002;2023-11-21T10:05:39;95628.06;;;7.43;100.00
75521;BME280;64102;48.628;9.002;2023-11-21T10:08:08;95626.84;;;7.47;100.00
75521;BME280;64102;48.628;9.002;2023-11-21T10:10:36;95627.22;;;7.33;100.00
75521;BME280;64102;48.628;9.002;2023-11-21T10:13:03;95633.13;;;7.24;100.00
75521;BME280;64102;48.628;9.002;2023-11-21T10:15:35;95639.69;;;7.07;100.00
75521;BME280;64102;48.628;9.002;2023-11-21T10:18:06;95626.94;;;6.96;100.00
75521;BME280;64102;48.628;9.002;2023-11-21T10:20:33;95632.13;;;6.85;100.00
75521;BME280;64102;48.628;9.002;2023-11-21T10:23:03;95630.16;;;6.67;100.00
75521;BME280;64102;48.628;9.002;2023-11-21T10:25:28;95636.84;;;6.59;100.00
75521;BME280;64102;48.628;9.002;2023-11-21T10:27:58;95632.34;;;6.51;100.00
75521;BME280;64102;48.628;9.002;2023-11-21T10:30:38;95627.34;;;6.50;100.00
75521;BME280;64102;48.628;9.002;2023-11-21T10:33:05;95631.09;;;6.46;100.00
75521;BME280;64102;48.628;9.002;2023-11-21T10:38:14;95627.69;;;6.66;100.00
75521;BME280;64102;48.628;9.002;2023-11-21T10:40:40;95633.47;;;6.58;100.00
75521;BME280;64102;48.628;9.002;2023-11-21T10:43:07;95632.91;;;6.55;100.00
75521;BME280;64102;48.628;9.002;2023-11-21T10:45:39;95636.28;;;6.55;100.00
75521;BME280;64102;48.628;9.002;2023-11-21T10:48:06;95639.53;;;6.57;100.00
75521;BME280;64102;48.628;9.002;2023-11-21T10:50:37;95647.09;;;6.59;100.00
75521;BME280;64102;48.628;9.002;2023-11-21T10:53:04;95642.72;;;6.50;100.00
75521;BME280;64102;48.628;9.002;2023-11-21T10:55:30;95645.97;;;6.52;100.00
75521;BME280;64102;48.628;9.002;2023-11-21T10:57:58;95644.53;;;6.59;100.00
75521;BME280;64102;48.628;9.002;2023-11-21T11:00:26;95640.84;;;6.52;100.00
75521;BME280;64102;48.628;9.002;2023-11-21T11:02:52;95642.47;;;6.53;100.00
75521;BME280;64102;48.628;9.002;2023-11-21T11:05:22;95638.97;;;6.54;100.00
75521;BME280;64102;48.628;9.002;2023-11-21T11:07:51;95643.16;;;6.55;100.00
75521;BME280;64102;48.628;9.002;2023-11-21T11:10:20;95642.41;;;6.64;100.00
75521;BME280;64102;48.628;9.002;2023-11-21T11:12:48;95642.59;;;6.72;100.00
75521;BME280;64102;48.628;9.002;2023-11-21T11:15:15;95645.84;;;6.74;100.00
75521;BME280;64102;48.628;9.002;2023-11-21T11:17:41;95641.53;;;6.74;100.00
75521;BME280;64102;48.628;9.002;2023-11-21T11:20:08;95638.84;;;6.76;100.00
75521;BME280;64102;48.628;9.002;2023-11-21T11:22:40;95640.53;;;6.87;100.00
75521;BME280;64102;48.628;9.002;2023-11-21T11:28:14;95644.53;;;7.00;100.00
75521;BME280;64102;48.628;9.002;2023-11-21T11:31:24;95650.41;;;6.91;100.00
75521;BME280;64102;48.628;9.002;2023-11-21T11:36:44;95647.16;;;6.89;100.00
75521;BME280;64102;48.628;9.002;2023-11-21T11:41:56;95651.84;;;7.05;100.00
75521;BME280;64102;48.628;9.002;2023-11-21T11:47:30;95653.81;;;7.01;100.00
75521;BME280;64102;48.628;9.002;2023-11-21T11:50:12;95654.63;;;7.23;100.00
75521;BME280;64102;48.628;9.002;2023-11-21T11:52:48;95658.53;;;7.27;100.00
75521;BME280;64102;48.628;9.002;2023-11-21T11:55:20;95656.19;;;7.44;100.00
75521;BME280;64102;48.628;9.002;2023-11-21T11:57:51;95648.91;;;7.49;100.00
75521;BME280;64102;48.628;9.002;2023-11-21T12:02:51;95654.25;;;7.37;100.00
75521;BME280;64102;48.628;9.002;2023-11-21T12:05:18;95649.41;;;7.43;100.00
75521;BME280;64102;48.628;9.002;2023-11-21T12:07:45;95654.84;;;7.19;100.00
75521;BME280;64102;48.628;9.002;2023-11-21T12:10:21;95656.91;;;7.26;100.00
75521;BME280;64102;48.628;9.002;2023-11-21T12:12:51;95658.53;;;7.27;100.00
75521;BME280;64102;48.628;9.002;2023-11-21T12:15:18;95657.34;;;7.31;100.00
75521;BME280;64102;48.628;9.002;2023-11-21T12:17:44;95667.38;;;7.43;100.00
75521;BME280;64102;48.628;9.002;2023-11-21T12:20:14;95663.47;;;7.39;100.00
75521;BME280;64102;48.628;9.002;2023-11-21T12:22:48;95660.16;;;7.28;100.00
75521;BME280;64102;48.628;9.002;2023-11-21T12:25:20;95672.19;;;7.27;100.00
75521;BME280;64102;48.628;9.002;2023-11-21T12:27:50;95662.16;;;7.24;100.00
75521;BME280;64102;48.628;9.002;2023-11-21T12:30:17;95661.50;;;7.22;100.00
75521;BME280;64102;48.628;9.002;2023-11-21T12:32:44;95668.22;;;7.13;100.00
75521;BME280;64102;48.628;9.002;2023-11-21T12:35:11;95665.50;;;7.15;100.00
75521;BME280;64102;48.628;9.002;2023-11-21T12:37:41;95673.84;;;7.07;100.00
75521;BME280;64102;48.628;9.002;2023-11-21T12:40:10;95668.91;;;6.95;100.00
75521;BME280;64102;48.628;9.002;2023-11-21T12:42:41;95671.88;;;6.90;100.00
75521;BME280;64102;48.628;9.002;2023-11-21T12:47:49;95672.84;;;6.99;100.00
75521;BME280;64102;48.628;9.002;2023-11-21T12:50:24;95680.06;;;7.14;100.00
75521;BME280;64102;48.628;9.002;2023-11-21T12:52:57;95674.78;;;7.37;100.00
75521;BME280;64102;48.628;9.002;2023-11-21T12:55:23;95678.63;;;7.52;100.00
75521;BME280;64102;48.628;9.002;2023-11-21T12:57:53;95681.94;;;7.73;100.00
75521;BME280;64102;48.628;9.002;2023-11-21T13:00:34;95679.25;;;7.75;100.00
75521;BME280;64102;48.628;9.002;2023-11-21T13:03:03;95681.16;;;7.42;100.00
75521;BME280;64102;48.628;9.002;2023-11-21T13:05:30;95686.13;;;7.34;100.00
75521;BME280;64102;48.628;9.002;2023-11-21T13:07:57;95686.50;;;7.30;100.00
75521;BME280;64102;48.628;9.002;2023-11-21T13:10:26;95680.56;;;7.29;100.00
75521;BME280;64102;48.628;9.002;2023-11-21T13:12:54;95683.13;;;7.29;100.00
75521;BME280;64102;48.628;9.002;2023-11-21T13:15:20;95685.31;;;7.34;100.00
75521;BME280;64102;48.628;9.002;2023-11-21T13:17:45;95690.44;;;7.34;100.00
75521;BME280;64102;48.628;9.002;2023-11-21T13:20:12;95682.75;;;7.34;100.00